Sespe, CA

9:17 AM PST on December 10, 2016 (GMT -0800)
3 km west of Fillmore in agricultural area | | Change Station

Elev 495 ft 34.41 °N, 118.95 °W | Updated 1 minute ago

Mostly Cloudy
Mostly Cloudy
52.6 °F
Feels Like 52.6 °F
N
0.0
Wind Variable Wind from WSW
Gusts 0.0 mph

Today
High -- | Low -- °F
--% Chance of Precip.
Yesterday
High -- | Low -- °F
Precip. -- in
Pressure 30.20 in
Visibility 5.0 miles
Clouds Overcast 600 ft
Dew Point 51 °F
Humidity 93%
Rainfall 0.00 in
Snow Depth Not available.
6:51 AM 4:45 PM
Waxing Gibbous, 85% visible
METAR KCMA 101655Z 06004KT 5SM BR OVC006 15/13 A3017 RMK AO2 SLP226 T01500133
Pressure 30.20 in
Visibility 5.0 miles
Clouds Overcast 600 ft
Dew Point 51 °F
Humidity 93%
Rainfall 0.00 in
Snow Depth Not available.
6:51 AM 4:45 PM
Waxing Gibbous, 85% visible
METAR KCMA 101655Z 06004KT 5SM BR OVC006 15/13 A3017 RMK AO2 SLP226 T01500133

10-Day Weather Forecast

Almanac

Astronomy

Dec. 10, 2016 Rise Set
Actual Time
Civil Twilight
Nautical Twilight
Astronomical Twilight
Moon
Length of Visible Light
Length of Day
Tomorrow will be .
, % of the Moon is Illuminated

Today's Extremes

State Highs State Lows

Community

WunderPhotos

Upload Photos

1,956,588 photos uploaded!

WunderBlog® & News

Nearby

Air Quality

  Air Quality AQ Index Pollutant
Not available.

Snow Depth

Station Depth Elevation

Earthquake Activity

City Distance Mag. Time & Date
Minimum magnitude displayed is 2.5.

Coastal Water Temperatures

Place Temperature

Stations

Nearby Weather Stations

Station Location Temp. Windchill Dew Point Humidity Wind Precip. Elev Updated Type
                   

Watches & Warnings

There are currently no watches in effect.